createdAt,value
2019-04-07T00:04:48.909Z,56.55
2019-04-07T00:09:51.332Z,55.93
2019-04-07T00:14:54.086Z,55.61
2019-04-07T00:19:56.983Z,55.62
2019-04-07T00:24:59.586Z,57.04
2019-04-07T00:30:02.061Z,57.88
2019-04-07T00:35:05.685Z,57.99
2019-04-07T00:40:08.649Z,58.73
2019-04-07T00:45:11.014Z,57.51
2019-04-07T00:50:13.384Z,57.96
2019-04-07T00:55:15.738Z,58.54
2019-04-07T01:00:18.293Z,58.55
2019-04-07T01:05:20.704Z,58.06
2019-04-07T01:10:22.963Z,57.71
2019-04-07T01:15:25.293Z,57.98
2019-04-07T01:20:27.513Z,58.61
2019-04-07T01:25:30.216Z,58.91
2019-04-07T01:30:32.689Z,59.03
2019-04-07T01:35:45.052Z,59.08
2019-04-07T01:40:39.959Z,59.38
2019-04-07T01:45:47.267Z,59.24
2019-04-07T01:50:51.806Z,58.90
2019-04-07T01:56:05.429Z,58.30
2019-04-07T02:01:15.823Z,59.74
2019-04-07T02:06:28.934Z,59.73
2019-04-07T02:11:35.696Z,60.59
2019-04-07T02:16:39.977Z,60.75
2019-04-07T02:21:53.017Z,60.53
2019-04-07T02:26:59.784Z,60.21
2019-04-07T02:32:08.045Z,60.25
2019-04-07T02:37:15.360Z,60.59
2019-04-07T02:42:32.205Z,60.63
2019-04-07T02:47:48.390Z,61.56
2019-04-07T02:52:54.623Z,62.19
2019-04-07T02:57:59.034Z,62.33
2019-04-07T03:03:03.347Z,61.26
2019-04-07T03:08:24.139Z,60.98
2019-04-07T03:13:46.467Z,60.60
2019-04-07T03:18:50.810Z,60.34
2019-04-07T03:24:04.228Z,60.66
2019-04-07T03:29:08.572Z,61.18
2019-04-07T03:34:15.940Z,60.68
2019-04-07T03:39:26.554Z,61.32
2019-04-07T03:44:36.802Z,62.70
2019-04-07T03:49:43.333Z,62.30
2019-04-07T03:54:47.610Z,62.75
2019-04-07T04:00:08.583Z,61.74
2019-04-07T04:05:18.902Z,61.47
2019-04-07T04:10:23.751Z,62.10
2019-04-07T04:15:27.749Z,62.21
2019-04-07T04:20:30.295Z,62.41
2019-04-07T04:25:32.603Z,62.08
2019-04-07T04:30:34.755Z,62.19
2019-04-07T04:35:37.539Z,62.47
2019-04-07T04:40:40.851Z,63.44
2019-04-07T04:45:44.901Z,62.48
2019-04-07T04:50:47.702Z,62.82
2019-04-07T04:55:50.069Z,63.11
2019-04-07T05:00:52.503Z,63.51
2019-04-07T05:05:55.492Z,62.51
2019-04-07T05:10:58.840Z,63.27
2019-04-07T05:16:01.213Z,63.00
2019-04-07T05:21:04.247Z,62.92
2019-04-07T05:26:06.997Z,63.03
2019-04-07T05:31:09.818Z,62.62
2019-04-07T05:36:12.237Z,61.32
2019-04-07T05:41:14.954Z,62.56
2019-04-07T05:46:17.650Z,62.06
2019-04-07T05:51:20.885Z,61.34
2019-04-07T05:56:26.835Z,62.50
2019-04-07T06:01:28.428Z,63.46
2019-04-07T06:06:32.274Z,63.39
2019-04-07T06:11:36.165Z,63.56
2019-04-07T06:16:38.853Z,62.10
2019-04-07T06:21:41.643Z,61.18
2019-04-07T06:26:47.137Z,61.11
2019-04-07T06:31:48.220Z,60.28
2019-04-07T06:36:53.619Z,59.99
2019-04-07T06:41:55.064Z,59.24
2019-04-07T06:47:03.856Z,58.50
2019-04-07T06:52:13.801Z,57.21
2019-04-07T06:57:29.901Z,57.68
2019-04-07T07:02:49.134Z,56.61
2019-04-07T07:07:59.707Z,56.92
2019-04-07T07:19:38.026Z,54.74
2019-04-07T07:24:40.319Z,55.93
2019-04-07T07:29:45.373Z,55.18
2019-04-07T07:34:47.655Z,52.48
2019-04-07T07:39:50.820Z,51.96
2019-04-07T07:44:53.558Z,49.07
2019-04-07T07:49:56.103Z,46.90
2019-04-07T07:55:00.759Z,45.52
2019-04-07T08:00:06.959Z,45.86
2019-04-07T08:05:09.420Z,46.17
2019-04-07T08:10:11.714Z,45.73
2019-04-07T08:15:14.184Z,46.85
2019-04-07T08:20:16.485Z,44.81
2019-04-07T08:25:22.296Z,44.52
2019-04-07T08:30:23.798Z,44.70
2019-04-07T08:35:28.767Z,44.55
2019-04-07T08:40:32.647Z,44.32
2019-04-07T08:45:35.838Z,46.50
2019-04-07T08:50:38.419Z,45.82
2019-04-07T08:55:41.649Z,45.17
2019-04-07T09:00:48.212Z,44.48
2019-04-07T09:05:50.327Z,43.47
2019-04-07T09:10:54.917Z,46.16
2019-04-07T09:16:17.389Z,44.29
2019-04-07T09:21:39.839Z,44.23
2019-04-07T09:26:49.968Z,43.90
2019-04-07T09:31:54.209Z,43.42
2019-04-07T09:37:17.691Z,43.71
2019-04-07T09:42:26.810Z,43.96
2019-04-07T09:47:33.854Z,44.72
2019-04-07T09:52:39.568Z,47.64
2019-04-07T09:57:47.576Z,47.34
2019-04-07T10:02:58.824Z,49.80
2019-04-07T10:08:20.310Z,43.90
2019-04-07T10:13:27.540Z,42.38
2019-04-07T10:18:46.580Z,44.12
2019-04-07T10:24:06.268Z,45.78
2019-04-07T10:29:11.022Z,45.43
2019-04-07T10:34:16.157Z,43.60
2019-04-07T10:39:27.487Z,43.91
2019-04-07T10:44:32.405Z,45.97
2019-04-07T10:50:01.400Z,44.53
2019-04-07T11:00:55.321Z,45.01
2019-04-07T11:06:05.209Z,45.00
2019-04-07T11:11:12.307Z,43.91
2019-04-07T11:16:31.533Z,44.16
2019-04-07T11:21:36.708Z,43.52
2019-04-07T11:26:59.418Z,45.62
2019-04-07T11:32:10.303Z,45.57
2019-04-07T11:37:20.525Z,45.99
2019-04-07T11:42:33.836Z,47.09
2019-04-07T11:47:43.938Z,44.74
2019-04-07T11:52:51.590Z,44.90
2019-04-07T11:58:09.787Z,43.91
2019-04-07T12:03:20.013Z,44.07
2019-04-07T12:08:31.154Z,45.36
2019-04-07T12:13:31.431Z,43.13
2019-04-07T12:18:38.677Z,46.07
2019-04-07T12:23:55.410Z,44.76
2019-04-07T12:29:16.770Z,43.64
2019-04-07T12:34:33.341Z,43.61
2019-04-07T12:39:37.403Z,44.84
2019-04-07T12:44:47.057Z,43.74
2019-04-07T12:50:10.513Z,44.45
2019-04-07T12:55:28.334Z,44.25
2019-04-07T13:00:52.308Z,45.78
2019-04-07T13:05:59.099Z,44.91
2019-04-07T13:11:26.486Z,45.11
2019-04-07T13:16:30.542Z,45.33
2019-04-07T13:21:40.944Z,45.70
2019-04-07T13:26:54.132Z,46.14
2019-04-07T13:32:01.461Z,45.77
2019-04-07T13:37:18.760Z,46.60
2019-04-07T13:42:23.101Z,46.97
2019-04-07T13:47:29.019Z,47.65
2019-04-07T13:52:45.413Z,48.41
2019-04-07T13:57:55.608Z,48.25
2019-04-07T14:03:04.837Z,49.04
2019-04-07T14:08:22.324Z,49.88
2019-04-07T14:13:42.705Z,49.51
2019-04-07T14:18:53.052Z,49.96
2019-04-07T14:24:13.982Z,50.91
2019-04-07T14:29:18.512Z,50.29
2019-04-07T14:34:29.316Z,50.68
2019-04-07T14:39:36.923Z,50.96
2019-04-07T14:44:47.073Z,50.94
2019-04-07T14:49:52.148Z,51.16
2019-04-07T14:55:01.331Z,51.17
2019-04-07T15:00:14.105Z,51.29
2019-04-07T15:05:21.774Z,51.30
2019-04-07T15:10:27.593Z,51.17
2019-04-07T15:15:30.337Z,50.66
2019-04-07T15:20:32.819Z,51.15
2019-04-07T15:25:35.481Z,51.49
2019-04-07T15:30:38.410Z,51.46
2019-04-07T15:35:47.861Z,51.69
2019-04-07T15:40:47.161Z,52.32
2019-04-07T15:45:50.177Z,52.38
2019-04-07T15:50:52.887Z,52.23
2019-04-07T15:56:02.265Z,52.43
2019-04-07T16:01:00.226Z,53.03
2019-04-07T16:06:02.299Z,53.52
2019-04-07T16:11:05.017Z,53.71
2019-04-07T16:16:07.875Z,53.58
2019-04-07T16:21:11.185Z,53.63
2019-04-07T16:26:19.692Z,54.17
2019-04-07T16:31:25.447Z,54.27
2019-04-07T16:36:28.174Z,54.41
2019-04-07T16:41:30.539Z,54.01
2019-04-07T16:46:33.768Z,54.61
2019-04-07T16:51:36.374Z,54.61
2019-04-07T16:56:39.176Z,54.36
2019-04-07T17:01:42.280Z,54.84
2019-04-07T17:06:44.975Z,54.48
2019-04-07T17:11:47.432Z,54.56
2019-04-07T17:16:50.399Z,54.01
2019-04-07T17:21:53.402Z,54.59
2019-04-07T17:26:56.232Z,54.30
2019-04-07T17:32:01.769Z,54.16
2019-04-07T17:37:04.114Z,54.49
2019-04-07T17:42:10.811Z,54.58
2019-04-07T17:47:14.471Z,54.96
2019-04-07T17:52:35.827Z,55.24
2019-04-07T17:57:42.897Z,55.67
2019-04-07T18:02:53.926Z,56.18
2019-04-07T18:07:59.179Z,57.53
2019-04-07T18:13:21.728Z,57.09
2019-04-07T18:18:26.414Z,57.33
2019-04-07T18:23:32.632Z,56.96
2019-04-07T18:28:43.324Z,56.99
2019-04-07T18:33:50.739Z,57.08
2019-04-07T18:39:11.224Z,56.92
2019-04-07T18:44:22.840Z,57.01
2019-04-07T18:49:29.481Z,57.24
2019-04-07T18:54:42.476Z,57.44
2019-04-07T18:59:50.345Z,57.67
2019-04-07T19:05:09.172Z,57.34
2019-04-07T19:10:19.880Z,57.03
2019-04-07T19:15:37.110Z,58.04
2019-04-07T19:20:51.463Z,59.10
2019-04-07T19:26:04.430Z,59.35
2019-04-07T19:31:26.326Z,59.23
2019-04-07T19:36:30.529Z,59.43
2019-04-07T19:41:40.649Z,58.69
2019-04-07T19:46:44.611Z,58.82
2019-04-07T19:52:04.325Z,58.57
2019-04-07T19:57:09.474Z,59.13
2019-04-07T20:02:16.263Z,60.58
2019-04-07T20:07:20.376Z,60.01
2019-04-07T20:12:25.025Z,59.89
2019-04-07T20:17:32.704Z,59.14
2019-04-07T20:22:39.507Z,59.37
2019-04-07T20:27:47.002Z,59.21
2019-04-07T20:32:51.328Z,58.77
2019-04-07T20:38:07.711Z,59.14
2019-04-07T20:43:24.139Z,58.97
2019-04-07T20:48:35.860Z,59.13
2019-04-07T20:53:40.783Z,59.13
2019-04-07T20:59:05.777Z,59.19
2019-04-07T21:04:08.519Z,59.37
2019-04-07T21:09:32.611Z,59.55
2019-04-07T21:14:41.539Z,59.42
2019-04-07T21:20:02.360Z,59.37
2019-04-07T21:25:08.180Z,59.75
2019-04-07T21:30:17.315Z,59.73
2019-04-07T21:35:38.376Z,60.56
2019-04-07T21:40:48.435Z,61.00
2019-04-07T21:46:11.121Z,61.23
2019-04-07T21:51:24.786Z,60.93
2019-04-07T21:56:47.629Z,60.68
2019-04-07T22:02:11.408Z,60.91
2019-04-07T22:07:16.018Z,61.14
2019-04-07T22:12:18.842Z,61.09
2019-04-07T22:17:21.440Z,61.38
2019-04-07T22:22:25.662Z,61.32
2019-04-07T22:27:28.666Z,61.33
2019-04-07T22:32:31.139Z,61.59
2019-04-07T22:37:34.459Z,61.24
2019-04-07T22:42:37.180Z,61.71
2019-04-07T22:47:39.990Z,61.77
2019-04-07T22:52:42.126Z,62.43
2019-04-07T22:57:44.517Z,62.39
2019-04-07T23:02:46.833Z,62.31
2019-04-07T23:07:50.216Z,62.65
2019-04-07T23:12:52.447Z,62.34
2019-04-07T23:17:55.581Z,62.46
2019-04-07T23:22:58.360Z,62.41
2019-04-07T23:28:00.707Z,62.87
2019-04-07T23:33:03.026Z,62.91
2019-04-07T23:38:05.783Z,62.70
2019-04-07T23:43:07.788Z,62.96
2019-04-07T23:48:10.444Z,62.72
2019-04-07T23:53:49.450Z,62.21
2019-04-07T23:58:52.079Z,62.59
